createdAt,value
2022-10-03T00:02:09.877Z,96321.16
2022-10-03T00:04:48.929Z,96332.63
2022-10-03T00:08:07.285Z,96326.50
2022-10-03T00:10:41.694Z,96339.97
2022-10-03T00:13:31.536Z,96325.97
2022-10-03T00:16:09.387Z,96329.78
2022-10-03T00:19:08.275Z,96341.75
2022-10-03T00:21:41.191Z,96353.72
2022-10-03T00:24:21.606Z,96357.53
2022-10-03T00:26:52.467Z,96364.88
2022-10-03T00:29:26.314Z,96359.34
2022-10-03T00:32:01.733Z,96375.13
2022-10-03T00:34:48.147Z,96368.94
2022-10-03T00:37:48.121Z,96365.97
2022-10-03T00:40:39.782Z,96371.91
2022-10-03T00:43:15.995Z,96383.56
2022-10-03T00:46:04.188Z,96383.56
2022-10-03T00:48:49.712Z,96388.38
2022-10-03T00:51:19.390Z,96377.88
2022-10-03T00:53:51.951Z,96380.72
2022-10-03T00:56:24.424Z,96380.34
2022-10-03T00:59:12.873Z,96383.47
2022-10-03T01:01:50.177Z,96376.66
2022-10-03T01:04:35.648Z,96379.31
2022-10-03T01:07:24.598Z,96386.59
2022-10-03T01:10:02.963Z,96375.47
2022-10-03T01:12:35.578Z,96381.06
2022-10-03T01:15:29.348Z,96372.72
2022-10-03T01:18:30.325Z,96377.31
2022-10-03T01:21:25.114Z,96379.81
2022-10-03T01:24:25.536Z,96378.84
2022-10-03T01:26:58.043Z,96374.13
2022-10-03T01:30:09.153Z,96378.09
2022-10-03T01:32:49.967Z,96371.94
2022-10-03T01:35:31.595Z,96372.44
2022-10-03T01:38:20.852Z,96369.50
2022-10-03T01:41:09.431Z,96368.81
2022-10-03T01:43:50.391Z,96365.66
2022-10-03T01:46:33.526Z,96373.97
2022-10-03T01:49:06.682Z,96359.84
2022-10-03T01:51:51.928Z,96368.66
2022-10-03T01:54:37.336Z,96354.72
2022-10-03T01:57:16.231Z,96346.91
2022-10-03T02:00:08.733Z,96341.75
2022-10-03T02:02:58.670Z,96340.88
2022-10-03T02:05:55.854Z,96338.22
2022-10-03T02:08:41.008Z,96346.34
2022-10-03T02:11:09.000Z,96344.53
2022-10-03T02:13:45.578Z,96356.66
2022-10-03T02:16:31.128Z,96351.19
2022-10-03T02:19:13.393Z,96358.56
2022-10-03T02:21:49.518Z,96357.75
2022-10-03T02:24:16.130Z,96365.53
2022-10-03T02:27:25.711Z,96360.91
2022-10-03T02:30:09.569Z,96363.25
2022-10-03T02:32:44.930Z,96362.25
2022-10-03T02:35:49.278Z,96367.56
2022-10-03T02:38:27.189Z,96361.97
2022-10-03T02:41:16.713Z,96360.94
2022-10-03T02:44:11.818Z,96368.25
2022-10-03T02:47:16.111Z,96383.22
2022-10-03T02:50:01.041Z,96379.09
2022-10-03T02:53:07.707Z,96376.44
2022-10-03T02:55:55.263Z,96391.53
2022-10-03T02:58:36.740Z,96392.56
2022-10-03T03:01:43.024Z,96395.16
2022-10-03T03:04:46.855Z,96399.78
2022-10-03T03:07:19.911Z,96403.56
2022-10-03T03:10:04.871Z,96406.72
2022-10-03T03:13:16.307Z,96408.66
2022-10-03T03:16:04.568Z,96407.53
2022-10-03T03:19:00.436Z,96410.66
2022-10-03T03:21:32.114Z,96406.72
2022-10-03T03:24:02.387Z,96414.19
2022-10-03T03:26:41.898Z,96414.41
2022-10-03T03:29:23.927Z,96411.31
2022-10-03T03:32:23.046Z,96414.63
2022-10-03T03:34:59.487Z,96415.84
2022-10-03T03:37:41.436Z,96424.34
2022-10-03T03:40:29.674Z,96422.66
2022-10-03T03:43:02.130Z,96418.19
2022-10-03T03:45:54.831Z,96412.94
2022-10-03T03:49:01.718Z,96413.91
2022-10-03T03:51:51.602Z,96410.28
2022-10-03T03:54:40.316Z,96414.44
2022-10-03T03:57:25.797Z,96413.06
2022-10-03T04:00:03.917Z,96413.91
2022-10-03T04:02:42.501Z,96420.22
2022-10-03T04:05:40.879Z,96417.13
2022-10-03T04:08:13.385Z,96414.28
2022-10-03T04:10:55.975Z,96406.59
2022-10-03T04:14:10.356Z,96416.91
2022-10-03T04:17:15.015Z,96424.03
2022-10-03T04:19:54.146Z,96416.56
2022-10-03T04:22:58.589Z,96421.19
2022-10-03T04:25:28.225Z,96415.38
2022-10-03T04:28:04.601Z,96412.72
2022-10-03T04:30:46.355Z,96413.22
2022-10-03T04:33:25.617Z,96417.25
2022-10-03T04:36:15.331Z,96420.75
2022-10-03T04:39:04.825Z,96421.72
2022-10-03T04:41:43.062Z,96415.13
2022-10-03T04:44:43.592Z,96421.56
2022-10-03T04:47:26.574Z,96417.94
2022-10-03T04:50:03.252Z,96421.13
2022-10-03T04:53:02.330Z,96428.09
2022-10-03T04:55:50.210Z,96427.63
2022-10-03T04:58:36.239Z,96424.97
2022-10-03T05:01:18.971Z,96431.97
2022-10-03T05:03:48.669Z,96432.47
2022-10-03T05:06:49.330Z,96439.47
2022-10-03T05:09:37.525Z,96446.63
2022-10-03T05:12:17.291Z,96444.50
2022-10-03T05:14:49.920Z,96444.94
2022-10-03T05:17:28.259Z,96441.00
2022-10-03T05:20:14.531Z,96455.13
2022-10-03T05:22:52.124Z,96454.97
2022-10-03T05:25:29.158Z,96450.50
2022-10-03T05:28:04.612Z,96458.50
2022-10-03T05:30:53.463Z,96458.69
2022-10-03T05:33:34.397Z,96463.47
2022-10-03T05:36:12.230Z,96458.84
2022-10-03T05:39:22.908Z,96456.69
2022-10-03T05:42:22.589Z,96463.69
2022-10-03T05:44:58.796Z,96461.03
2022-10-03T05:47:45.622Z,96462.38
2022-10-03T05:50:18.130Z,96453.25
2022-10-03T05:52:45.569Z,96450.75
2022-10-03T05:55:33.085Z,96454.78
2022-10-03T05:58:28.204Z,96459.09
2022-10-03T06:01:07.190Z,96463.41
2022-10-03T06:03:46.424Z,96466.94
2022-10-03T06:06:34.860Z,96473.47
2022-10-03T06:09:38.986Z,96484.84
2022-10-03T06:12:11.384Z,96500.56
2022-10-03T06:15:08.634Z,96499.13
2022-10-03T06:17:58.270Z,96497.00
2022-10-03T06:20:43.832Z,96496.88
2022-10-03T06:23:58.158Z,96498.38
2022-10-03T06:26:45.404Z,96507.50
2022-10-03T06:29:36.702Z,96473.06
2022-10-03T06:32:05.973Z,96505.91
2022-10-03T06:35:09.876Z,96491.53
2022-10-03T06:37:45.541Z,96500.19
2022-10-03T06:40:18.180Z,96486.13
2022-10-03T06:43:15.092Z,96501.25
2022-10-03T06:46:17.755Z,96509.22
2022-10-03T06:49:10.336Z,96512.56
2022-10-03T06:51:55.392Z,96522.53
2022-10-03T06:54:46.346Z,96527.16
2022-10-03T06:57:38.145Z,96528.00
2022-10-03T07:00:21.742Z,96515.06
2022-10-03T07:03:15.363Z,96527.94
2022-10-03T07:06:00.771Z,96527.91
2022-10-03T07:09:06.438Z,96526.16
2022-10-03T07:11:55.914Z,96535.00
2022-10-03T07:14:41.805Z,96527.91
2022-10-03T07:17:14.982Z,96533.06
2022-10-03T07:19:44.744Z,96531.09
2022-10-03T07:22:32.531Z,96531.09
2022-10-03T07:25:15.038Z,96537.72
2022-10-03T07:27:56.739Z,96541.53
2022-10-03T07:30:36.072Z,96554.88
2022-10-03T07:33:28.996Z,96552.44
2022-10-03T07:36:29.191Z,96545.47
2022-10-03T07:39:17.031Z,96550.16
2022-10-03T07:42:02.060Z,96545.47
2022-10-03T07:44:45.998Z,96545.72
2022-10-03T07:47:49.811Z,96544.19
2022-10-03T07:50:30.288Z,96551.19
2022-10-03T07:53:43.517Z,96552.06
2022-10-03T07:56:20.151Z,96545.91
2022-10-03T07:58:54.816Z,96553.25
2022-10-03T08:01:45.626Z,96545.25
2022-10-03T08:04:44.434Z,96555.41
2022-10-03T08:07:29.628Z,96558.28
2022-10-03T08:10:03.386Z,96564.75
2022-10-03T08:13:07.321Z,96565.44
2022-10-03T08:15:53.394Z,96565.59
2022-10-03T08:18:52.023Z,96551.78
2022-10-03T08:21:50.784Z,96559.44
2022-10-03T08:24:35.890Z,96566.09
2022-10-03T08:27:08.263Z,96555.97
2022-10-03T08:30:22.731Z,96556.00
2022-10-03T08:32:59.636Z,96555.03
2022-10-03T08:35:57.113Z,96562.06
2022-10-03T08:38:51.511Z,96558.91
2022-10-03T08:41:31.149Z,96556.44
2022-10-03T08:44:28.192Z,96563.59
2022-10-03T08:47:08.787Z,96572.63
2022-10-03T08:49:44.367Z,96565.13
2022-10-03T08:52:35.271Z,96557.97
2022-10-03T08:55:26.868Z,96568.50
2022-10-03T08:58:06.175Z,96574.13
2022-10-03T09:00:52.872Z,96563.47
2022-10-03T09:03:50.128Z,96561.16
2022-10-03T09:07:15.412Z,96566.16
2022-10-03T09:09:52.215Z,96555.56
2022-10-03T09:12:42.857Z,96558.72
2022-10-03T09:15:48.793Z,96556.50
2022-10-03T09:18:27.229Z,96559.00
2022-10-03T09:20:59.533Z,96553.81
2022-10-03T09:23:53.947Z,96564.50
2022-10-03T09:26:32.353Z,96569.03
2022-10-03T09:29:11.095Z,96564.84
2022-10-03T09:31:46.800Z,96563.16
2022-10-03T09:34:22.580Z,96567.47
2022-10-03T09:37:20.169Z,96562.84
2022-10-03T09:40:15.447Z,96567.06
2022-10-03T09:43:01.710Z,96561.09
2022-10-03T09:46:04.030Z,96556.66
2022-10-03T09:48:58.728Z,96547.41
2022-10-03T09:51:49.352Z,96550.44
2022-10-03T09:54:54.044Z,96546.34
2022-10-03T09:58:01.722Z,96538.47
2022-10-03T10:00:56.454Z,96544.47
2022-10-03T10:03:42.014Z,96538.19
2022-10-03T10:06:20.463Z,96537.56
2022-10-03T10:09:13.831Z,96539.84
2022-10-03T10:12:18.925Z,96548.84
2022-10-03T10:14:57.246Z,96544.56
2022-10-03T10:17:32.989Z,96541.00
2022-10-03T10:20:16.952Z,96534.47
2022-10-03T10:23:18.695Z,96539.69
2022-10-03T10:26:12.790Z,96543.09
2022-10-03T10:29:03.794Z,96528.78
2022-10-03T10:31:55.228Z,96539.75
2022-10-03T10:34:50.652Z,96536.63
2022-10-03T10:37:33.411Z,96533.03
2022-10-03T10:40:27.267Z,96530.81
2022-10-03T10:43:24.452Z,96527.94
2022-10-03T10:46:20.093Z,96525.06
2022-10-03T10:49:24.029Z,96534.75
2022-10-03T10:52:12.372Z,96538.06
2022-10-03T10:54:51.338Z,96544.78
2022-10-03T10:57:43.254Z,96546.25
2022-10-03T11:00:32.642Z,96540.09
2022-10-03T11:03:26.968Z,96529.94
2022-10-03T11:06:18.372Z,96543.28
2022-10-03T11:09:12.829Z,96530.19
2022-10-03T11:12:10.296Z,96525.34
2022-10-03T11:14:59.267Z,96514.34
2022-10-03T11:18:11.794Z,96536.63
2022-10-03T11:21:15.310Z,96528.56
2022-10-03T11:24:00.418Z,96517.03
2022-10-03T11:26:45.675Z,96522.66
2022-10-03T11:29:15.051Z,96518.72
2022-10-03T11:31:47.305Z,96530.31
2022-10-03T11:34:38.655Z,96532.19
2022-10-03T11:37:50.657Z,96537.25
2022-10-03T11:40:28.497Z,96538.16
2022-10-03T11:43:22.730Z,96531.81
2022-10-03T11:46:02.184Z,96531.16
2022-10-03T11:48:43.429Z,96534.25
2022-10-03T11:51:19.154Z,96534.44
2022-10-03T11:54:29.480Z,96536.03
2022-10-03T11:57:08.842Z,96543.38
2022-10-03T11:59:53.865Z,96544.06
2022-10-03T12:02:40.211Z,96543.72
2022-10-03T12:05:29.175Z,96539.09
2022-10-03T12:08:38.201Z,96544.94
2022-10-03T12:11:19.964Z,96539.09
2022-10-03T12:14:12.584Z,96540.19
2022-10-03T12:17:06.955Z,96526.06
2022-10-03T12:19:54.653Z,96531.50
2022-10-03T12:22:48.198Z,96530.91
2022-10-03T12:25:23.892Z,96536.56
2022-10-03T12:28:01.115Z,96541.53
2022-10-03T12:30:37.718Z,96535.47
2022-10-03T12:33:21.825Z,96536.88
2022-10-03T12:36:15.505Z,96539.88
2022-10-03T12:38:56.652Z,96537.78
2022-10-03T12:41:29.373Z,96538.31
2022-10-03T12:44:10.961Z,96532.63
2022-10-03T12:47:08.396Z,96529.75
2022-10-03T12:49:49.941Z,96530.53
2022-10-03T12:52:28.230Z,96528.03
2022-10-03T12:55:22.170Z,96540.47
2022-10-03T12:58:07.127Z,96536.13
2022-10-03T13:00:48.336Z,96545.22
2022-10-03T13:03:19.219Z,96550.63
2022-10-03T13:06:14.628Z,96551.94
2022-10-03T13:08:53.259Z,96544.44
2022-10-03T13:11:38.793Z,96548.22
2022-10-03T13:14:22.717Z,96549.53
2022-10-03T13:17:20.187Z,96550.19
2022-10-03T13:20:01.612Z,96543.44
2022-10-03T13:22:36.205Z,96538.81
2022-10-03T13:25:31.229Z,96540.19
2022-10-03T13:28:31.141Z,96540.47
2022-10-03T13:31:19.788Z,96543.53
2022-10-03T13:34:01.828Z,96541.78
2022-10-03T13:36:40.342Z,96534.28
2022-10-03T13:39:39.156Z,96540.34
2022-10-03T13:42:28.789Z,96542.31
2022-10-03T13:45:01.127Z,96544.41
2022-10-03T13:47:44.741Z,96542.13
2022-10-03T13:50:23.610Z,96540.53
2022-10-03T13:53:09.717Z,96539.06
2022-10-03T13:55:57.499Z,96544.97
2022-10-03T13:59:32.475Z,96539.44
2022-10-03T14:02:17.421Z,96538.38
2022-10-03T14:04:53.452Z,96539.63
2022-10-03T14:07:38.283Z,96545.22
2022-10-03T14:10:26.621Z,96534.28
2022-10-03T14:13:16.995Z,96542.50
2022-10-03T14:15:50.066Z,96540.19
2022-10-03T14:18:30.809Z,96539.81
2022-10-03T14:21:12.751Z,96548.38
2022-10-03T14:23:57.084Z,96551.84
2022-10-03T14:26:32.407Z,96551.91
2022-10-03T14:29:13.390Z,96546.41
2022-10-03T14:32:01.510Z,96552.44
2022-10-03T14:34:28.178Z,96548.34
2022-10-03T14:37:11.840Z,96548.72
2022-10-03T14:39:58.556Z,96546.97
2022-10-03T14:42:40.382Z,96541.13
2022-10-03T14:45:11.447Z,96546.81
2022-10-03T14:47:41.934Z,96549.53
2022-10-03T14:50:18.125Z,96539.19
2022-10-03T14:53:00.364Z,96539.66
2022-10-03T14:55:32.527Z,96548.53
2022-10-03T14:58:16.987Z,96539.16
2022-10-03T15:00:47.770Z,96551.53
2022-10-03T15:03:17.600Z,96555.59
2022-10-03T15:05:53.454Z,96556.31
2022-10-03T15:08:21.053Z,96555.72
2022-10-03T15:10:50.890Z,96557.38
2022-10-03T15:13:19.833Z,96552.41
2022-10-03T15:15:48.493Z,96546.69
2022-10-03T15:18:18.188Z,96554.75
2022-10-03T15:20:47.874Z,96560.78
2022-10-03T15:23:38.714Z,96554.78
2022-10-03T15:26:13.671Z,96564.44
2022-10-03T15:28:45.321Z,96559.63
2022-10-03T15:31:36.688Z,96561.44
2022-10-03T15:34:16.387Z,96559.47
2022-10-03T15:36:50.728Z,96580.03
2022-10-03T15:39:40.584Z,96569.69
2022-10-03T15:42:10.020Z,96566.78
2022-10-03T15:44:39.635Z,96567.00
2022-10-03T15:47:09.640Z,96588.22
2022-10-03T15:50:09.919Z,96572.38
2022-10-03T15:53:35.476Z,96566.00
2022-10-03T15:56:15.524Z,96572.38
2022-10-03T15:58:52.808Z,96571.88
2022-10-03T16:01:27.358Z,96580.72
2022-10-03T16:04:04.699Z,96574.22
2022-10-03T16:07:07.846Z,96584.72
2022-10-03T16:10:05.414Z,96582.88
2022-10-03T16:12:41.124Z,96589.09
2022-10-03T16:15:15.074Z,96589.09
2022-10-03T16:17:56.316Z,96601.22
2022-10-03T16:20:34.968Z,96597.22
2022-10-03T16:23:16.446Z,96598.50
2022-10-03T16:25:48.731Z,96605.19
2022-10-03T16:28:21.092Z,96608.34
2022-10-03T16:30:58.145Z,96612.16
2022-10-03T16:33:35.409Z,96619.16
2022-10-03T16:36:08.508Z,96620.31
2022-10-03T16:38:42.603Z,96613.16
2022-10-03T16:41:09.170Z,96630.63
2022-10-03T16:43:35.999Z,96631.09
2022-10-03T16:46:09.819Z,96624.59
2022-10-03T16:48:55.471Z,96638.88
2022-10-03T16:51:36.144Z,96638.06
2022-10-03T16:54:04.368Z,96640.91
2022-10-03T16:56:37.249Z,96650.69
2022-10-03T16:59:11.193Z,96652.88
2022-10-03T17:01:53.028Z,96654.97
2022-10-03T17:04:26.068Z,96660.63
2022-10-03T17:06:59.709Z,96665.94
2022-10-03T17:09:44.853Z,96670.56
2022-10-03T17:12:53.150Z,96668.47
2022-10-03T17:15:24.251Z,96674.66
2022-10-03T17:18:00.012Z,96662.16
2022-10-03T17:20:48.056Z,96675.53
2022-10-03T17:23:30.366Z,96674.13
2022-10-03T17:26:05.365Z,96675.75
2022-10-03T17:28:39.170Z,96686.41
2022-10-03T17:31:28.744Z,96675.72
2022-10-03T17:34:01.743Z,96679.31
2022-10-03T17:36:43.381Z,96676.44
2022-10-03T17:39:46.082Z,96667.16
2022-10-03T17:42:27.946Z,96673.91
2022-10-03T17:45:16.853Z,96684.78
2022-10-03T17:48:09.417Z,96682.38
2022-10-03T17:50:57.990Z,96687.69
2022-10-03T17:53:35.174Z,96690.78
2022-10-03T17:56:10.466Z,96688.06
2022-10-03T17:58:45.598Z,96690.03
2022-10-03T18:01:20.129Z,96689.75
2022-10-03T18:04:04.905Z,96686.69
2022-10-03T18:06:42.775Z,96685.03
2022-10-03T18:09:15.482Z,96693.25
2022-10-03T18:11:43.926Z,96679.41
2022-10-03T18:14:28.976Z,96687.06
2022-10-03T18:17:06.987Z,96691.03
2022-10-03T18:19:41.722Z,96698.75
2022-10-03T18:22:22.047Z,96700.69
2022-10-03T18:24:56.721Z,96706.34
2022-10-03T18:27:37.792Z,96703.97
2022-10-03T18:30:19.537Z,96717.13
2022-10-03T18:32:48.519Z,96711.03
2022-10-03T18:35:22.336Z,96710.31
2022-10-03T18:38:00.913Z,96711.59
2022-10-03T18:40:53.344Z,96725.59
2022-10-03T18:43:27.318Z,96725.19
2022-10-03T18:46:04.029Z,96721.56
2022-10-03T18:51:50.716Z,96721.66
2022-10-03T18:54:17.853Z,96730.59
2022-10-03T18:56:48.289Z,96727.47
2022-10-03T18:59:19.913Z,96727.78
2022-10-03T19:01:56.007Z,96715.22
2022-10-03T19:04:37.757Z,96720.59
2022-10-03T19:07:19.777Z,96727.78
2022-10-03T19:10:03.302Z,96709.03
2022-10-03T19:12:35.720Z,96721.31
2022-10-03T19:15:27.574Z,96719.47
2022-10-03T19:18:11.405Z,96720.31
2022-10-03T19:20:43.421Z,96722.53
2022-10-03T19:23:26.999Z,96720.84
2022-10-03T19:25:57.446Z,96712.81
2022-10-03T19:28:35.522Z,96712.31
2022-10-03T19:31:35.986Z,96720.69
2022-10-03T19:34:06.199Z,96726.16
2022-10-03T19:36:38.669Z,96726.88
2022-10-03T19:39:06.203Z,96731.19
2022-10-03T19:41:40.785Z,96732.19
2022-10-03T19:44:09.214Z,96727.13
2022-10-03T19:46:52.490Z,96732.84
2022-10-03T19:49:28.521Z,96735.50
2022-10-03T19:52:11.522Z,96734.84
2022-10-03T19:55:10.363Z,96736.63
2022-10-03T19:57:36.951Z,96735.09
2022-10-03T20:00:15.572Z,96735.09
2022-10-03T20:02:44.185Z,96740.41
2022-10-03T20:05:19.729Z,96743.78
2022-10-03T20:07:56.453Z,96743.50
2022-10-03T20:10:52.965Z,96739.84
2022-10-03T20:13:19.898Z,96732.84
2022-10-03T20:15:50.448Z,96738.88
2022-10-03T20:18:34.596Z,96735.91
2022-10-03T20:21:04.072Z,96735.09
2022-10-03T20:23:33.509Z,96734.78
2022-10-03T20:26:17.106Z,96736.22
2022-10-03T20:28:58.902Z,96749.78
2022-10-03T20:31:28.637Z,96743.94
2022-10-03T20:33:58.963Z,96745.63
2022-10-03T20:36:38.546Z,96742.25
2022-10-03T20:39:15.873Z,96738.91
2022-10-03T20:41:42.702Z,96735.81
2022-10-03T20:44:34.409Z,96743.94
2022-10-03T20:47:22.530Z,96737.25
2022-10-03T20:50:18.366Z,96739.34
2022-10-03T20:52:52.048Z,96741.31
2022-10-03T20:55:23.991Z,96739.63
2022-10-03T20:57:55.844Z,96752.50
2022-10-03T21:00:25.045Z,96742.72
2022-10-03T21:03:29.311Z,96739.53
2022-10-03T21:05:59.036Z,96737.13
2022-10-03T21:08:41.389Z,96739.53
2022-10-03T21:11:11.009Z,96738.53
2022-10-03T21:14:15.120Z,96736.88
2022-10-03T21:16:49.047Z,96737.84
2022-10-03T21:19:23.311Z,96737.28
2022-10-03T21:21:57.745Z,96736.75
2022-10-03T21:24:39.629Z,96734.38
2022-10-03T21:27:13.430Z,96739.31
2022-10-03T21:29:51.904Z,96745.59
2022-10-03T21:32:32.950Z,96740.00
2022-10-03T21:35:02.885Z,96734.13
2022-10-03T21:37:41.469Z,96732.06
2022-10-03T21:40:47.042Z,96736.66
2022-10-03T21:43:41.466Z,96734.56
2022-10-03T21:46:22.878Z,96739.75
2022-10-03T21:49:01.473Z,96736.41
2022-10-03T21:51:42.005Z,96734.88
2022-10-03T21:54:27.480Z,96733.34
2022-10-03T21:57:01.063Z,96739.09
2022-10-03T21:59:42.810Z,96740.88
2022-10-03T22:02:47.750Z,96743.84
2022-10-03T22:05:40.936Z,96742.59
2022-10-03T22:08:25.521Z,96736.41
2022-10-03T22:11:30.846Z,96739.22
2022-10-03T22:14:22.896Z,96737.25
2022-10-03T22:17:13.908Z,96737.53
2022-10-03T22:19:50.586Z,96740.72
2022-10-03T22:22:32.680Z,96736.66
2022-10-03T22:25:28.486Z,96746.16
2022-10-03T22:28:16.476Z,96746.69
2022-10-03T22:31:12.701Z,96746.16
2022-10-03T22:34:06.957Z,96747.25
2022-10-03T22:36:36.947Z,96745.28
2022-10-03T22:39:10.187Z,96743.75
2022-10-03T22:41:39.834Z,96741.91
2022-10-03T22:44:09.987Z,96735.34
2022-10-03T22:46:39.686Z,96736.75
2022-10-03T22:49:13.922Z,96735.78
2022-10-03T22:51:43.074Z,96733.84
2022-10-03T22:54:13.317Z,96737.47
2022-10-03T22:56:54.704Z,96734.94
2022-10-03T22:59:53.964Z,96736.31
2022-10-03T23:02:27.835Z,96737.44
2022-10-03T23:04:59.834Z,96736.59
2022-10-03T23:07:32.235Z,96736.88
2022-10-03T23:10:16.407Z,96737.84
2022-10-03T23:13:05.538Z,96739.66
2022-10-03T23:15:36.415Z,96749.09
2022-10-03T23:18:39.869Z,96748.50
2022-10-03T23:21:09.239Z,96744.44
2022-10-03T23:23:50.213Z,96745.56
2022-10-03T23:26:35.414Z,96749.31
2022-10-03T23:29:04.075Z,96752.91
2022-10-03T23:31:55.432Z,96752.22
2022-10-03T23:34:37.323Z,96751.38
2022-10-03T23:37:16.219Z,96756.66
2022-10-03T23:39:55.964Z,96750.28
2022-10-03T23:42:31.462Z,96761.13
2022-10-03T23:45:07.141Z,96755.41
2022-10-03T23:47:39.016Z,96760.84
2022-10-03T23:50:07.772Z,96756.63
2022-10-03T23:52:44.522Z,96762.75
2022-10-03T23:55:20.731Z,96757.47
2022-10-03T23:57:48.005Z,96765.41
